Atlantic, North Carolina
Current Conditions -  °F | °C
As of 2:56 AM on Friday 24 Oct 2014 (Local Time) from KNBT Reporting Station
Clear Clear  
Wind Chill: 14°   Ceiling: Unl
Heat Index: 14°   Visibility: 8mi
Dew Point: 10°   Wind: 6mph
Humidity: 75%   Direction: 310°NW
Pressure: 29.96"   Gusts: NA
Location:  34.89°N, 76.34°W
Report Text: KNBT 240656Z AUTO 31005KT 8SM CLR 14/10 A2996 RMK AO2 SLP148 T01440100 PNO
Loading
Personal Weather Stations






























Interactive Weather Map
Tropical Storm Tracking
New forecast layout! Learn more

10-Day Weather Forecast

Advertisements
Track Severe Weather on mobile